Agua Caliente, California
Current Conditions -  °F | °C
As of 5:35 PM on Monday 20 Oct 2014 (Local Time) from KO69 Reporting Station
Broken Clouds Broken Clouds  
Wind Chill: 66°   Ceiling: 6500
Heat Index: 66°   Visibility: 10mi
Dew Point: 55°   Wind: 16mph
Humidity: 68%   Direction: 260°W
Pressure: 29.98"   Gusts: 21mph
Location:  38.257°N, 122.459°W
Report Text: KO69 210035Z AUTO 26014G18KT 10SM FEW032 SCT045 BKN065 19/13 A2998 RMK AO1
Loading
Personal Weather Stations






























Interactive Weather Map New forecast layout! Learn more

10-Day Weather Forecast

Advertisements
Track Severe Weather on mobile